createdAt,value
2016-12-14T04:00:50.176Z,20.59
2016-12-14T04:01:15.750Z,20.65
2016-12-14T04:01:41.314Z,20.64
2016-12-14T04:02:06.914Z,20.59
2016-12-14T04:02:32.472Z,20.61
2016-12-14T04:02:58.098Z,20.62
2016-12-14T04:03:23.779Z,20.59
2016-12-14T04:03:49.269Z,20.64
2016-12-14T04:04:14.831Z,20.61
2016-12-14T04:04:40.406Z,20.58
2016-12-14T04:05:05.947Z,20.61
2016-12-14T04:05:31.523Z,20.61
2016-12-14T04:05:57.080Z,20.62
2016-12-14T04:06:22.626Z,20.61
2016-12-14T04:06:48.233Z,20.64
2016-12-14T04:07:13.872Z,20.54
2016-12-14T04:07:39.424Z,20.65
2016-12-14T04:08:04.994Z,20.59
2016-12-14T04:08:30.559Z,20.62
2016-12-14T04:08:56.227Z,20.62
2016-12-14T04:09:21.784Z,20.62
2016-12-14T04:09:47.337Z,20.58
2016-12-14T04:10:12.920Z,20.64
2016-12-14T04:10:38.477Z,20.66
2016-12-14T04:11:04.063Z,20.61
2016-12-14T04:11:29.659Z,20.61
2016-12-14T04:11:55.207Z,20.59
2016-12-14T04:12:20.776Z,20.62
2016-12-14T04:12:46.431Z,20.64
2016-12-14T04:13:11.992Z,20.59
2016-12-14T04:13:37.551Z,20.61
2016-12-14T04:14:03.280Z,20.65
2016-12-14T04:14:28.844Z,20.62
2016-12-14T04:14:54.440Z,20.62
2016-12-14T04:15:20.022Z,20.58
2016-12-14T04:15:45.581Z,20.53
2016-12-14T04:16:11.155Z,20.62
2016-12-14T04:16:36.700Z,20.62
2016-12-14T04:17:02.376Z,20.58
2016-12-14T04:17:27.929Z,20.61
2016-12-14T04:17:53.532Z,20.59
2016-12-14T04:18:19.109Z,20.64
2016-12-14T04:18:44.644Z,20.61
2016-12-14T04:19:10.196Z,20.62
2016-12-14T04:19:35.778Z,20.59
2016-12-14T04:20:01.330Z,20.61
2016-12-14T04:20:26.908Z,20.64
2016-12-14T04:20:52.562Z,20.62
2016-12-14T04:21:18.125Z,20.64
2016-12-14T04:21:43.676Z,20.65
2016-12-14T04:22:09.312Z,20.62
2016-12-14T04:22:34.881Z,20.61
2016-12-14T04:23:00.447Z,20.64
2016-12-14T04:23:26.002Z,20.62
2016-12-14T04:23:51.563Z,20.62
2016-12-14T04:24:17.111Z,20.64
2016-12-14T04:24:42.737Z,20.66
2016-12-14T04:25:08.286Z,20.66
2016-12-14T04:25:33.970Z,20.66
2016-12-14T04:25:59.553Z,20.65
2016-12-14T04:26:25.164Z,20.68
2016-12-14T04:26:50.711Z,20.69
2016-12-14T04:27:16.291Z,20.68
2016-12-14T04:27:41.846Z,20.68
2016-12-14T04:28:07.403Z,20.71
2016-12-14T04:28:32.977Z,20.66
2016-12-14T04:28:58.580Z,20.65
2016-12-14T04:29:24.220Z,20.74
2016-12-14T04:29:49.769Z,20.69
2016-12-14T04:30:15.342Z,20.68
2016-12-14T04:30:40.889Z,20.72
2016-12-14T04:31:06.444Z,20.72
2016-12-14T04:31:32.004Z,20.71
2016-12-14T04:31:57.728Z,20.69
2016-12-14T04:32:23.315Z,20.77
2016-12-14T04:32:48.865Z,20.66
2016-12-14T04:33:14.431Z,20.69
2016-12-14T04:33:39.990Z,20.66
2016-12-14T04:34:05.594Z,20.72
2016-12-14T04:34:31.175Z,20.68
2016-12-14T04:34:56.727Z,20.72
2016-12-14T04:35:22.292Z,20.72
2016-12-14T04:35:47.887Z,20.71
2016-12-14T04:36:13.500Z,20.76
2016-12-14T04:36:39.043Z,20.74
2016-12-14T04:37:04.644Z,20.81
2016-12-14T04:37:30.303Z,20.83
2016-12-14T04:37:55.855Z,20.76
2016-12-14T04:38:21.423Z,20.87
2016-12-14T04:38:47.100Z,20.8
2016-12-14T04:39:12.735Z,20.84
2016-12-14T04:39:38.299Z,20.84
2016-12-14T04:40:03.916Z,20.87
2016-12-14T04:40:29.486Z,20.84
2016-12-14T04:40:55.056Z,20.89
2016-12-14T04:41:20.612Z,20.87
2016-12-14T04:41:46.163Z,20.9
2016-12-14T04:42:11.716Z,20.9
2016-12-14T04:42:37.268Z,20.86
2016-12-14T04:43:02.854Z,20.87
2016-12-14T04:43:28.366Z,20.91
2016-12-14T04:43:53.921Z,20.9
2016-12-14T04:44:19.500Z,20.81
2016-12-14T04:44:45.090Z,20.89
2016-12-14T04:45:10.651Z,20.87
2016-12-14T04:45:36.195Z,20.89
2016-12-14T04:46:01.757Z,20.95
2016-12-14T04:46:27.323Z,20.9
2016-12-14T04:46:52.875Z,20.91
2016-12-14T04:47:18.452Z,20.86
2016-12-14T04:47:44.019Z,20.83
2016-12-14T04:48:09.584Z,20.89
2016-12-14T04:48:35.142Z,20.91
2016-12-14T04:49:00.772Z,20.87
2016-12-14T04:49:26.333Z,20.86
2016-12-14T04:49:51.899Z,20.89
2016-12-14T04:50:17.451Z,20.86
2016-12-14T04:50:43.037Z,20.87
2016-12-14T04:51:08.603Z,20.93
2016-12-14T04:51:34.150Z,20.96
2016-12-14T04:51:59.739Z,20.87
2016-12-14T04:52:25.341Z,20.86
2016-12-14T04:52:50.869Z,20.95
2016-12-14T04:53:16.440Z,20.89
2016-12-14T04:53:41.996Z,20.9
2016-12-14T04:54:07.557Z,20.83
2016-12-14T04:54:33.194Z,20.96
2016-12-14T04:54:58.798Z,20.91
2016-12-14T04:55:24.363Z,20.89
2016-12-14T04:55:50.018Z,20.87
2016-12-14T04:56:15.589Z,20.9
2016-12-14T04:56:41.142Z,20.93
2016-12-14T04:57:06.830Z,20.91
2016-12-14T04:57:32.403Z,20.89
2016-12-14T04:57:57.971Z,20.86
2016-12-14T04:58:23.534Z,20.93
2016-12-14T04:58:49.254Z,20.87
2016-12-14T04:59:14.806Z,20.89
2016-12-14T04:59:40.377Z,20.95
2016-12-14T05:00:05.957Z,20.81
2016-12-14T05:00:31.587Z,20.95
2016-12-14T05:00:57.133Z,20.9
2016-12-14T05:01:22.840Z,20.83
2016-12-14T05:01:48.419Z,20.89
2016-12-14T05:02:13.999Z,20.95
2016-12-14T05:02:39.551Z,20.95
2016-12-14T05:03:05.117Z,20.89
2016-12-14T05:03:30.759Z,20.83
2016-12-14T05:03:56.298Z,20.98
2016-12-14T05:04:21.876Z,20.95
2016-12-14T05:04:47.420Z,20.81
2016-12-14T05:05:12.965Z,20.83
2016-12-14T05:05:38.545Z,20.87
2016-12-14T05:06:04.107Z,20.81
2016-12-14T05:06:29.672Z,20.89
2016-12-14T05:06:55.234Z,20.91
2016-12-14T05:07:20.788Z,20.86
2016-12-14T05:07:46.349Z,20.86
2016-12-14T05:08:11.944Z,20.86
2016-12-14T05:08:37.504Z,20.87
2016-12-14T05:09:03.148Z,20.91
2016-12-14T05:09:28.764Z,20.86
2016-12-14T05:09:54.338Z,20.89
2016-12-14T05:10:19.933Z,20.96
2016-12-14T05:10:45.485Z,20.89
2016-12-14T05:11:11.042Z,20.93
2016-12-14T05:11:36.601Z,20.9
2016-12-14T05:12:24.615Z,20.91
2016-12-14T05:12:50.185Z,20.9
2016-12-14T05:13:15.745Z,20.89
2016-12-14T05:13:41.332Z,20.9
2016-12-14T05:14:06.970Z,20.91
2016-12-14T05:14:32.634Z,20.89
2016-12-14T05:14:58.197Z,20.93
2016-12-14T05:15:23.762Z,20.96
2016-12-14T05:15:49.314Z,20.93
2016-12-14T05:16:14.865Z,20.91
2016-12-14T05:16:40.426Z,20.81
2016-12-14T05:17:05.994Z,20.93
2016-12-14T05:17:31.551Z,20.91
2016-12-14T05:17:57.168Z,20.89
2016-12-14T05:18:22.747Z,20.84
2016-12-14T05:18:48.290Z,20.86
2016-12-14T05:19:13.858Z,20.89
2016-12-14T05:19:39.526Z,20.86
2016-12-14T05:20:05.069Z,20.87
2016-12-14T05:20:30.612Z,20.9
2016-12-14T05:20:56.166Z,20.86
2016-12-14T05:21:21.712Z,20.84
2016-12-14T05:21:47.306Z,20.84
2016-12-14T05:22:12.871Z,20.86
2016-12-14T05:22:38.423Z,20.87
2016-12-14T05:23:04.070Z,20.9
2016-12-14T05:23:29.628Z,20.89
2016-12-14T05:23:55.184Z,20.89
2016-12-14T05:24:20.751Z,20.87
2016-12-14T05:24:46.343Z,20.84
2016-12-14T05:25:11.894Z,20.9
2016-12-14T05:25:37.478Z,20.86
2016-12-14T05:26:03.035Z,20.84
2016-12-14T05:26:28.597Z,20.89
2016-12-14T05:26:54.225Z,20.89
2016-12-14T05:27:19.771Z,20.84
2016-12-14T05:27:45.313Z,20.81
2016-12-14T05:28:10.864Z,20.83
2016-12-14T05:28:36.416Z,20.8
2016-12-14T05:29:02.024Z,20.8
2016-12-14T05:29:27.653Z,20.81
2016-12-14T05:29:53.206Z,20.84
2016-12-14T05:30:18.854Z,20.83
2016-12-14T05:30:44.416Z,20.83
2016-12-14T05:31:09.963Z,20.79
2016-12-14T05:31:35.490Z,20.84
2016-12-14T05:32:01.070Z,20.79
2016-12-14T05:32:26.633Z,20.83
2016-12-14T05:32:52.179Z,20.84
2016-12-14T05:33:17.796Z,20.76
2016-12-14T05:33:43.367Z,20.8
2016-12-14T05:34:08.922Z,20.77
2016-12-14T05:34:34.531Z,20.8
2016-12-14T05:35:00.091Z,20.83
2016-12-14T05:35:25.681Z,20.81
2016-12-14T05:35:51.246Z,20.77
2016-12-14T05:36:16.790Z,20.79
2016-12-14T05:36:42.371Z,20.79
2016-12-14T05:37:07.921Z,20.79
2016-12-14T05:37:33.457Z,20.79
2016-12-14T05:37:59.339Z,20.81
2016-12-14T05:38:24.893Z,20.76
2016-12-14T05:38:50.565Z,20.81
2016-12-14T05:39:16.128Z,20.79
2016-12-14T05:39:41.697Z,20.72
2016-12-14T05:40:07.249Z,20.71
2016-12-14T05:40:32.809Z,20.8
2016-12-14T05:40:58.379Z,20.69
2016-12-14T05:41:23.939Z,20.72
2016-12-14T05:41:49.491Z,20.8
2016-12-14T05:42:15.032Z,20.8
2016-12-14T05:42:40.627Z,20.71
2016-12-14T05:43:06.208Z,20.77
2016-12-14T05:43:31.820Z,20.71
2016-12-14T05:43:57.371Z,20.66
2016-12-14T05:44:22.929Z,20.74
2016-12-14T05:44:48.488Z,20.69
2016-12-14T05:45:14.035Z,20.74
2016-12-14T05:45:39.592Z,20.77
2016-12-14T05:46:05.163Z,20.77
2016-12-14T05:46:30.702Z,20.76
2016-12-14T05:46:56.357Z,20.79
2016-12-14T05:47:21.908Z,20.83
2016-12-14T05:47:47.452Z,20.8
2016-12-14T05:48:13.159Z,20.8
2016-12-14T05:48:38.723Z,20.77
2016-12-14T05:49:04.260Z,20.8
2016-12-14T05:49:29.846Z,20.81
2016-12-14T05:49:55.585Z,20.77
2016-12-14T05:50:21.139Z,20.8
2016-12-14T05:50:46.700Z,20.79
2016-12-14T05:51:12.275Z,20.77
2016-12-14T05:51:37.849Z,20.8
2016-12-14T05:52:03.404Z,20.72
2016-12-14T05:52:28.975Z,20.81
2016-12-14T05:52:54.523Z,20.8
2016-12-14T05:53:20.069Z,20.8
2016-12-14T05:53:45.673Z,20.8
2016-12-14T05:54:11.216Z,20.79
2016-12-14T05:54:36.820Z,20.77
2016-12-14T05:55:02.491Z,20.79
2016-12-14T05:55:28.043Z,20.84
2016-12-14T05:55:53.708Z,20.86
2016-12-14T05:56:19.260Z,20.87
2016-12-14T05:56:44.811Z,20.93
2016-12-14T05:57:10.370Z,20.89
2016-12-14T05:57:35.940Z,20.9
2016-12-14T05:58:01.489Z,20.86
2016-12-14T05:58:27.106Z,20.86
2016-12-14T05:58:52.718Z,20.87
2016-12-14T05:59:18.310Z,20.83
2016-12-14T05:59:43.855Z,20.86
2016-12-14T06:00:47.161Z,20.86
2016-12-14T06:01:12.722Z,20.86
2016-12-14T06:01:38.267Z,20.87
2016-12-14T06:02:03.811Z,20.9
2016-12-14T06:02:29.448Z,20.83
2016-12-14T06:02:55.016Z,20.86
2016-12-14T06:03:20.560Z,20.96
2016-12-14T06:03:46.211Z,20.87
2016-12-14T06:04:11.915Z,21.01
2016-12-14T06:04:37.493Z,20.89
2016-12-14T06:05:03.036Z,20.99
2016-12-14T06:05:28.585Z,20.95
2016-12-14T06:05:54.155Z,20.89
2016-12-14T06:06:19.718Z,20.95
2016-12-14T06:06:45.267Z,20.95
2016-12-14T06:07:10.814Z,20.87
2016-12-14T06:07:36.416Z,20.9
2016-12-14T06:08:01.976Z,20.89
2016-12-14T06:08:27.526Z,20.9
2016-12-14T06:08:53.082Z,20.95
2016-12-14T06:09:18.646Z,21.04
2016-12-14T06:09:44.200Z,20.96
2016-12-14T06:10:09.799Z,20.99
2016-12-14T06:10:35.362Z,21.01
2016-12-14T06:11:00.979Z,20.99
2016-12-14T06:11:26.579Z,21.01
2016-12-14T06:11:52.140Z,21.06
2016-12-14T06:12:17.784Z,20.96
2016-12-14T06:12:43.343Z,21.09
2016-12-14T06:13:08.891Z,21.02
2016-12-14T06:13:34.546Z,21.02
2016-12-14T06:14:00.145Z,21.04
2016-12-14T06:14:25.748Z,21.01
2016-12-14T06:14:51.293Z,21.05
2016-12-14T06:15:16.844Z,21.06
2016-12-14T06:15:42.404Z,21.06
2016-12-14T06:16:08.016Z,21.06
2016-12-14T06:16:33.595Z,21.11
2016-12-14T06:16:59.142Z,21.09
2016-12-14T06:17:24.698Z,21.11
2016-12-14T06:17:50.288Z,21.09
2016-12-14T06:18:15.843Z,21.08
2016-12-14T06:18:41.400Z,21.09
2016-12-14T06:19:06.962Z,21.02
2016-12-14T06:19:32.517Z,21.05
2016-12-14T06:19:58.080Z,21.04
2016-12-14T06:20:23.628Z,21.09
2016-12-14T06:20:49.187Z,21.09
2016-12-14T06:21:14.752Z,21.08
2016-12-14T06:21:40.303Z,21.05
2016-12-14T06:22:05.919Z,21.04
2016-12-14T06:22:31.552Z,21.08
2016-12-14T06:22:57.106Z,21.01
2016-12-14T06:23:22.760Z,21.08
2016-12-14T06:23:48.373Z,21.13
2016-12-14T06:24:13.938Z,21.04
2016-12-14T06:24:39.514Z,21.08
2016-12-14T06:25:05.104Z,20.86
2016-12-14T06:25:31.281Z,20.9
2016-12-14T06:25:56.845Z,20.9
2016-12-14T06:26:22.431Z,20.9
2016-12-14T06:26:47.999Z,20.87
2016-12-14T06:27:13.549Z,20.9
2016-12-14T06:27:39.209Z,20.86
2016-12-14T06:28:04.763Z,20.9
2016-12-14T06:28:30.319Z,20.9
2016-12-14T06:28:55.906Z,20.9
2016-12-14T06:29:21.605Z,20.9
2016-12-14T06:29:47.186Z,20.86
2016-12-14T06:30:12.744Z,20.79
2016-12-14T06:30:38.364Z,20.93
2016-12-14T06:31:03.919Z,20.93
2016-12-14T06:31:29.479Z,20.86
2016-12-14T06:31:55.044Z,20.93
2016-12-14T06:32:20.598Z,20.93
2016-12-14T06:32:46.167Z,20.89
2016-12-14T06:33:11.725Z,20.9
2016-12-14T06:33:37.298Z,20.91
2016-12-14T06:34:02.956Z,20.9
2016-12-14T06:34:28.565Z,20.9
2016-12-14T06:34:54.124Z,20.91
2016-12-14T06:35:19.687Z,20.91
2016-12-14T06:35:45.260Z,20.99
2016-12-14T06:36:10.809Z,20.99
2016-12-14T06:36:36.367Z,20.91
2016-12-14T06:37:02.001Z,20.99
2016-12-14T06:37:27.569Z,20.99
2016-12-14T06:37:53.132Z,20.9
2016-12-14T06:38:18.717Z,21.04
2016-12-14T06:38:44.287Z,21.04
2016-12-14T06:39:09.980Z,21.01
2016-12-14T06:39:35.581Z,21.01
2016-12-14T06:40:01.158Z,20.98
2016-12-14T06:40:26.674Z,21.06
2016-12-14T06:40:52.247Z,21.02
2016-12-14T06:41:17.825Z,20.98
2016-12-14T06:41:43.394Z,21.01
2016-12-14T06:42:08.952Z,21.01
2016-12-14T06:42:34.507Z,20.98
2016-12-14T06:43:00.140Z,20.98
2016-12-14T06:43:25.786Z,21.09
2016-12-14T06:43:51.334Z,21.06
2016-12-14T06:44:16.982Z,20.99
2016-12-14T06:44:42.538Z,21.08
2016-12-14T06:45:08.093Z,21.04
2016-12-14T06:45:33.652Z,21.04
2016-12-14T06:45:59.219Z,21.06
2016-12-14T06:46:24.792Z,21.05
2016-12-14T06:46:50.356Z,21.08
2016-12-14T06:47:15.907Z,21.08
2016-12-14T06:47:41.585Z,21.08
2016-12-14T06:48:07.171Z,21.04
2016-12-14T06:48:32.739Z,21.09
2016-12-14T06:48:58.276Z,21.04
2016-12-14T06:49:23.855Z,21.06
2016-12-14T06:49:49.535Z,21.05
2016-12-14T06:50:15.077Z,21.08
2016-12-14T06:50:40.641Z,20.99
2016-12-14T06:51:06.352Z,21.09
2016-12-14T06:51:31.922Z,20.98
2016-12-14T06:51:57.487Z,20.98
2016-12-14T06:52:23.028Z,20.98
2016-12-14T06:52:48.711Z,21.08
2016-12-14T06:53:14.262Z,21.06
2016-12-14T06:53:39.948Z,21.08
2016-12-14T06:54:05.513Z,21.09
2016-12-14T06:54:31.057Z,21.09
2016-12-14T06:54:56.609Z,21.08
2016-12-14T06:55:22.164Z,21.05
2016-12-14T06:55:47.777Z,21.09
2016-12-14T06:56:13.326Z,21.09
2016-12-14T06:56:38.864Z,21.02
2016-12-14T06:57:04.438Z,21.06
2016-12-14T06:57:30.137Z,21.04
2016-12-14T06:57:55.719Z,21.05
2016-12-14T06:58:21.262Z,21.13
2016-12-14T06:58:46.934Z,21.09
2016-12-14T06:59:12.478Z,21.09
2016-12-14T06:59:38.065Z,21.09
2016-12-14T07:00:03.624Z,21.09
2016-12-14T07:00:29.190Z,21.09
2016-12-14T07:01:17.084Z,21.11
2016-12-14T07:01:42.668Z,21.09
2016-12-14T07:02:08.224Z,21.08
2016-12-14T07:02:33.787Z,21.13
2016-12-14T07:02:59.372Z,21.11
2016-12-14T07:03:24.932Z,21.11
2016-12-14T07:03:50.523Z,21.08
2016-12-14T07:04:16.084Z,21.08
2016-12-14T07:04:41.648Z,21.11
2016-12-14T07:05:07.280Z,21.09
2016-12-14T07:05:32.865Z,21.09
2016-12-14T07:05:58.440Z,21.09
2016-12-14T07:06:24.017Z,21.02
2016-12-14T07:06:49.673Z,21.06
2016-12-14T07:07:15.254Z,21.11
2016-12-14T07:07:40.828Z,20.98
2016-12-14T07:08:06.377Z,21.05
2016-12-14T07:08:31.945Z,21.11
2016-12-14T07:08:57.495Z,21.09
2016-12-14T07:09:23.064Z,21.09
2016-12-14T07:09:48.643Z,21.04
2016-12-14T07:10:14.249Z,21.08
2016-12-14T07:10:39.846Z,21.04
2016-12-14T07:11:05.414Z,21.06
2016-12-14T07:11:30.972Z,21.09
2016-12-14T07:11:56.537Z,21.11
2016-12-14T07:12:22.090Z,20.99
2016-12-14T07:12:47.657Z,21.08
2016-12-14T07:13:13.199Z,20.99
2016-12-14T07:13:38.758Z,21.09
2016-12-14T07:14:04.446Z,21.09
2016-12-14T07:14:30.022Z,21.06
2016-12-14T07:14:55.566Z,20.98
2016-12-14T07:15:21.125Z,21.04
2016-12-14T07:15:46.685Z,21.08
2016-12-14T07:16:12.256Z,21.11
2016-12-14T07:16:37.846Z,21.04
2016-12-14T07:17:03.395Z,21.04
2016-12-14T07:17:28.950Z,21.06
2016-12-14T07:17:54.570Z,21.05
2016-12-14T07:18:20.139Z,21.02
2016-12-14T07:18:45.798Z,21.13
2016-12-14T07:19:11.405Z,21.02
2016-12-14T07:19:36.951Z,21.05
2016-12-14T07:20:02.505Z,21.11
2016-12-14T07:20:28.069Z,21.02
2016-12-14T07:20:53.677Z,21.08
2016-12-14T07:21:19.239Z,21.04
2016-12-14T07:21:44.785Z,21.08
2016-12-14T07:22:10.349Z,21.05
2016-12-14T07:22:35.917Z,21.04
2016-12-14T07:23:01.467Z,21.06
2016-12-14T07:23:27.030Z,21.08
2016-12-14T07:23:52.592Z,21.04
2016-12-14T07:24:18.146Z,21.04
2016-12-14T07:24:43.719Z,21.19
2016-12-14T07:25:09.338Z,21.05
2016-12-14T07:25:34.891Z,21.06
2016-12-14T07:26:00.444Z,21.11
2016-12-14T07:26:26.138Z,21.13
2016-12-14T07:26:51.685Z,21.05
2016-12-14T07:27:17.234Z,21.13
2016-12-14T07:27:42.776Z,21.05
2016-12-14T07:28:08.328Z,21.13
2016-12-14T07:28:33.942Z,21.14
2016-12-14T07:28:59.485Z,21.08
2016-12-14T07:29:25.049Z,21.05
2016-12-14T07:29:50.738Z,21.05
2016-12-14T07:30:16.347Z,21.11
2016-12-14T07:30:41.920Z,21.05
2016-12-14T07:31:07.485Z,21.14
2016-12-14T07:31:33.123Z,21.13
2016-12-14T07:31:58.677Z,21.06
2016-12-14T07:32:24.238Z,21.05
2016-12-14T07:32:49.787Z,21.14
2016-12-14T07:33:15.545Z,21.11
2016-12-14T07:33:41.123Z,21.06
2016-12-14T07:34:06.698Z,21.06
2016-12-14T07:34:32.353Z,21.08
2016-12-14T07:34:57.918Z,21.05
2016-12-14T07:35:23.462Z,21.11
2016-12-14T07:35:49.113Z,21.11
2016-12-14T07:36:14.729Z,21.06
2016-12-14T07:36:40.286Z,21.11
2016-12-14T07:37:05.915Z,21.06
2016-12-14T07:37:31.482Z,21.13
2016-12-14T07:37:57.075Z,21.09
2016-12-14T07:38:22.781Z,21.09
2016-12-14T07:38:48.366Z,21.14
2016-12-14T07:39:13.968Z,21.08
2016-12-14T07:39:39.535Z,21.13
2016-12-14T07:40:05.166Z,21.13
2016-12-14T07:40:30.739Z,21.09
2016-12-14T07:40:56.283Z,21.13
2016-12-14T07:41:21.881Z,21.09
2016-12-14T07:41:47.430Z,21.11
2016-12-14T07:42:12.989Z,21.08
2016-12-14T07:42:38.595Z,21.14
2016-12-14T07:43:04.312Z,21.14
2016-12-14T07:43:29.877Z,21.13
2016-12-14T07:43:55.434Z,21.11
2016-12-14T07:44:21.011Z,21.04
2016-12-14T07:44:46.662Z,21.09
2016-12-14T07:45:12.237Z,21.11
2016-12-14T07:45:37.789Z,21.08
2016-12-14T07:46:03.354Z,21.08
2016-12-14T07:46:28.908Z,21.16
2016-12-14T07:46:54.520Z,21.08
2016-12-14T07:47:20.065Z,21.06
2016-12-14T07:47:45.686Z,21.09
2016-12-14T07:48:11.288Z,21.11
2016-12-14T07:48:36.845Z,21.08
2016-12-14T07:49:02.411Z,21.11
2016-12-14T07:49:27.956Z,21.09
2016-12-14T07:49:53.514Z,21.06
2016-12-14T07:50:19.088Z,21.17
2016-12-14T07:50:44.687Z,21.16
2016-12-14T07:51:10.244Z,21.05
2016-12-14T07:51:35.801Z,21.13
2016-12-14T07:52:01.487Z,21.16
2016-12-14T07:52:27.032Z,21.16
2016-12-14T07:52:52.682Z,21.05
2016-12-14T07:53:18.230Z,21.05
2016-12-14T07:53:43.790Z,21.08
2016-12-14T07:54:09.352Z,21.14
2016-12-14T07:54:34.902Z,21.06
2016-12-14T07:55:00.472Z,21.05
2016-12-14T07:55:26.107Z,21.06
2016-12-14T07:55:51.658Z,21.14
2016-12-14T07:56:17.220Z,21.06
2016-12-14T07:56:42.771Z,21.08
2016-12-14T07:57:08.421Z,21.04
2016-12-14T07:57:33.963Z,21.04
2016-12-14T07:57:59.535Z,21.06
2016-12-14T07:58:25.327Z,21.05
2016-12-14T07:58:50.893Z,21.05
2016-12-14T07:59:16.459Z,21.05
2016-12-14T07:59:42.077Z,21.02
2016-12-14T08:00:07.664Z,21.08
2016-12-14T08:00:33.223Z,21.05
2016-12-14T08:00:58.947Z,21.06
2016-12-14T08:01:24.502Z,21.04
2016-12-14T08:01:50.051Z,21.05
2016-12-14T08:02:15.638Z,21.11
2016-12-14T08:02:41.286Z,21.02
2016-12-14T08:03:06.835Z,21.08
2016-12-14T08:03:32.371Z,21.04
2016-12-14T08:03:58.043Z,21.05
2016-12-14T08:04:23.630Z,21.02
2016-12-14T08:04:49.191Z,21.04
2016-12-14T08:05:14.744Z,21.08
2016-12-14T08:05:40.474Z,21.04
2016-12-14T08:06:06.045Z,21.09
2016-12-14T08:06:31.601Z,21.05
2016-12-14T08:06:57.175Z,21.13
2016-12-14T08:07:22.721Z,21.02
2016-12-14T08:07:48.283Z,21.06
2016-12-14T08:08:13.867Z,21.09
2016-12-14T08:08:39.448Z,21.06
2016-12-14T08:09:05.011Z,21.05
2016-12-14T08:09:30.624Z,21.11
2016-12-14T08:09:56.166Z,21.04
2016-12-14T08:10:21.747Z,21.02
2016-12-14T08:10:47.447Z,21.05
2016-12-14T08:11:13.034Z,21.05
2016-12-14T08:11:38.577Z,21.06
2016-12-14T08:12:04.233Z,21.04
2016-12-14T08:12:29.875Z,21.09
2016-12-14T08:12:55.425Z,21.11
2016-12-14T08:13:20.982Z,21.13
2016-12-14T08:13:46.535Z,21.05
2016-12-14T08:14:12.086Z,21.08
2016-12-14T08:14:37.665Z,21.13
2016-12-14T08:15:03.235Z,21.05
2016-12-14T08:15:28.794Z,21.09
2016-12-14T08:15:54.356Z,21.05
2016-12-14T08:16:19.928Z,21.11
2016-12-14T08:16:45.485Z,21.06
2016-12-14T08:17:11.029Z,21.09
2016-12-14T08:17:36.592Z,21.09
2016-12-14T08:18:02.150Z,21.08
2016-12-14T08:18:27.781Z,21.09
2016-12-14T08:18:53.335Z,21.05
2016-12-14T08:19:18.952Z,21.01
2016-12-14T08:19:44.598Z,21.11
2016-12-14T08:20:10.162Z,21.06
2016-12-14T08:20:35.846Z,21.09
2016-12-14T08:21:01.409Z,21.09
2016-12-14T08:21:26.955Z,21.06
2016-12-14T08:21:52.553Z,21.09
2016-12-14T08:22:18.181Z,21.08
2016-12-14T08:22:43.743Z,21.05
2016-12-14T08:23:09.297Z,21.09
2016-12-14T08:23:34.855Z,21.06
2016-12-14T08:24:00.403Z,21.09
2016-12-14T08:24:26.028Z,21.08
2016-12-14T08:24:51.679Z,21.08
2016-12-14T08:25:17.220Z,21.09
2016-12-14T08:25:42.793Z,21.09
2016-12-14T08:26:08.396Z,21.09
2016-12-14T08:26:33.976Z,21.11
2016-12-14T08:26:59.585Z,20.98
2016-12-14T08:27:25.241Z,21.09
2016-12-14T08:27:50.796Z,21.09
2016-12-14T08:28:16.348Z,21.11
2016-12-14T08:28:41.915Z,20.98
2016-12-14T08:29:07.619Z,21.09
2016-12-14T08:29:33.194Z,21.01
2016-12-14T08:29:58.837Z,21.01
2016-12-14T08:30:24.412Z,21.09
2016-12-14T08:30:50.006Z,20.99
2016-12-14T08:31:15.558Z,21.11
2016-12-14T08:31:41.209Z,21.09
2016-12-14T08:32:06.768Z,21.01
2016-12-14T08:32:32.358Z,21.08
2016-12-14T08:32:58.050Z,21.04
2016-12-14T08:33:23.684Z,21.11
2016-12-14T08:33:49.258Z,21.11
2016-12-14T08:34:14.831Z,21.09
2016-12-14T08:34:40.426Z,21.09
2016-12-14T08:35:06.017Z,21.11
2016-12-14T08:35:31.573Z,21.09
2016-12-14T08:35:57.275Z,21.09
2016-12-14T08:36:22.864Z,21.02
2016-12-14T08:36:48.420Z,21.09
2016-12-14T08:37:14.021Z,21.09
2016-12-14T08:37:39.600Z,21.08
2016-12-14T08:38:05.158Z,21.16
2016-12-14T08:38:30.722Z,21.11
2016-12-14T08:38:56.288Z,21.09
2016-12-14T08:39:21.862Z,21.08
2016-12-14T08:39:47.409Z,21.02
2016-12-14T08:40:12.969Z,21.08
2016-12-14T08:40:38.541Z,21.04
2016-12-14T08:41:04.196Z,21.11
2016-12-14T08:41:29.804Z,21.08
2016-12-14T08:41:55.364Z,21.11
2016-12-14T08:42:21.015Z,21.08
2016-12-14T08:42:46.608Z,21.06
2016-12-14T08:43:12.156Z,21.02
2016-12-14T08:43:37.706Z,21.09
2016-12-14T08:44:03.280Z,21.04
2016-12-14T08:44:28.832Z,21.13
2016-12-14T08:44:54.407Z,21.11
2016-12-14T08:45:19.974Z,21.05
2016-12-14T08:45:45.539Z,21.05
2016-12-14T08:46:11.194Z,21.09
2016-12-14T08:46:36.798Z,21.14
2016-12-14T08:47:02.361Z,21.04
2016-12-14T08:47:27.918Z,21.09
2016-12-14T08:47:53.565Z,21.06
2016-12-14T08:48:19.147Z,21.06
2016-12-14T08:48:44.700Z,21.02
2016-12-14T08:49:10.310Z,21.08
2016-12-14T08:49:35.851Z,21.04
2016-12-14T08:50:01.428Z,21.13
2016-12-14T08:50:27.001Z,21.08
2016-12-14T08:50:52.555Z,21.06
2016-12-14T08:51:18.114Z,21.11
2016-12-14T08:51:43.688Z,21.06
2016-12-14T08:52:09.248Z,21.06
2016-12-14T08:52:34.805Z,21.02
2016-12-14T08:53:00.358Z,21.04
2016-12-14T08:53:25.932Z,21.04
2016-12-14T08:53:51.551Z,21.11
2016-12-14T08:54:17.116Z,21.02
2016-12-14T08:54:42.740Z,21.05
2016-12-14T08:55:08.335Z,21.04
2016-12-14T08:55:33.887Z,21.02
2016-12-14T08:55:59.455Z,21.16
2016-12-14T08:56:25.135Z,21.04
2016-12-14T08:56:50.680Z,21.13
2016-12-14T08:57:16.241Z,21.05
2016-12-14T08:57:41.798Z,21.08
2016-12-14T08:58:07.345Z,21.11
2016-12-14T08:58:32.901Z,21.05
2016-12-14T08:58:58.452Z,21.04
2016-12-14T08:59:24.044Z,21.05
2016-12-14T08:59:49.612Z,21.04
2016-12-14T09:00:15.320Z,21.02
2016-12-14T09:00:40.864Z,21.05
2016-12-14T09:01:06.439Z,21.09
2016-12-14T09:01:32.003Z,21.05
2016-12-14T09:01:57.579Z,21.05
2016-12-14T09:02:23.140Z,21.05
2016-12-14T09:02:48.712Z,21.04
2016-12-14T09:03:14.264Z,21.04
2016-12-14T09:03:39.814Z,21.05
2016-12-14T09:04:05.523Z,21.11
2016-12-14T09:04:31.081Z,21.05
2016-12-14T09:04:56.665Z,21.05
2016-12-14T09:05:22.201Z,21.06
2016-12-14T09:05:47.872Z,21.13
2016-12-14T09:06:14.308Z,21.05
2016-12-14T09:06:39.849Z,21.04
2016-12-14T09:07:05.440Z,21.08
2016-12-14T09:07:31.027Z,21.06
2016-12-14T09:07:56.640Z,21.09
2016-12-14T09:08:22.233Z,21.05
2016-12-14T09:08:47.794Z,21.05
2016-12-14T09:09:13.369Z,21.02
2016-12-14T09:09:38.940Z,21.08
2016-12-14T09:10:04.525Z,21.04
2016-12-14T09:10:30.060Z,21.05
2016-12-14T09:10:55.633Z,21.05
2016-12-14T09:11:21.185Z,21.05
2016-12-14T09:11:46.836Z,21.08
2016-12-14T09:12:12.425Z,21.06
2016-12-14T09:12:37.985Z,21.04
2016-12-14T09:13:03.524Z,21.05
2016-12-14T09:13:29.258Z,21.02
2016-12-14T09:13:54.774Z,21.04
2016-12-14T09:14:20.401Z,21.08
2016-12-14T09:14:45.969Z,21.05
2016-12-14T09:15:11.664Z,21.02
2016-12-14T09:15:37.220Z,21.06
2016-12-14T09:16:02.739Z,21.04
2016-12-14T09:16:28.476Z,21.05
2016-12-14T09:16:54.028Z,21.11
2016-12-14T09:17:19.576Z,21.06
2016-12-14T09:17:45.217Z,21.04
2016-12-14T09:18:10.815Z,21.13
2016-12-14T09:18:36.370Z,21.06
2016-12-14T09:19:02.044Z,21.11
2016-12-14T09:19:27.580Z,21.02
2016-12-14T09:19:53.146Z,21.09
2016-12-14T09:20:18.771Z,21.09
2016-12-14T09:20:44.548Z,21.02
2016-12-14T09:21:10.104Z,21.11
2016-12-14T09:21:35.665Z,21.05
2016-12-14T09:22:01.292Z,21.05
2016-12-14T09:22:26.889Z,21.13
2016-12-14T09:22:52.429Z,21.08
2016-12-14T09:23:18.017Z,21.05
2016-12-14T09:23:43.689Z,21.09
2016-12-14T09:24:09.236Z,21.06
2016-12-14T09:24:34.788Z,21.09
2016-12-14T09:25:00.333Z,21.05
2016-12-14T09:25:25.892Z,21.13
2016-12-14T09:25:51.443Z,21.11
2016-12-14T09:26:16.999Z,21.09
2016-12-14T09:26:42.569Z,21.09
2016-12-14T09:27:08.147Z,21.08
2016-12-14T09:27:33.790Z,21.08
2016-12-14T09:27:59.351Z,21.04
2016-12-14T09:28:24.913Z,21.11
2016-12-14T09:28:50.460Z,21.06
2016-12-14T09:29:16.000Z,21.11
2016-12-14T09:29:41.601Z,21.08
2016-12-14T09:30:07.156Z,21.02
2016-12-14T09:30:32.702Z,21.06
2016-12-14T09:30:58.347Z,21.09
2016-12-14T09:31:23.968Z,21.11
2016-12-14T09:31:49.558Z,21.05
2016-12-14T09:32:15.199Z,21.09